createdAt,value
2022-11-24T00:01:41.021Z,76.09
2022-11-24T00:07:47.418Z,76.46
2022-11-24T00:11:24.636Z,76.56
2022-11-24T00:15:01.803Z,76.92
2022-11-24T00:18:20.356Z,77.22
2022-11-24T00:27:53.513Z,78.08
2022-11-24T00:33:55.188Z,78.05
2022-11-24T00:36:40.130Z,78.24
2022-11-24T00:39:31.112Z,78.33
2022-11-24T00:42:20.644Z,78.54
2022-11-24T00:45:14.213Z,78.53
2022-11-24T00:48:26.168Z,78.71
2022-11-24T00:52:01.044Z,78.54
2022-11-24T00:55:23.343Z,78.54
2022-11-24T01:16:39.333Z,78.23
2022-11-24T01:19:56.985Z,78.26
2022-11-24T03:16:35.623Z,76.94
2022-11-24T03:19:07.047Z,76.90
2022-11-24T03:21:37.236Z,76.64
2022-11-24T03:24:05.651Z,76.68
2022-11-24T03:26:39.490Z,76.78
2022-11-24T05:18:27.986Z,76.00
2022-11-24T05:20:58.314Z,75.91
2022-11-24T06:09:20.884Z,75.11
2022-11-24T06:11:49.095Z,75.03
2022-11-24T06:14:40.623Z,74.85
2022-11-24T08:08:24.737Z,74.74
2022-11-24T08:11:46.286Z,74.78
2022-11-24T08:43:58.261Z,72.38
2022-11-24T08:55:45.238Z,71.71
2022-11-24T09:12:21.013Z,69.13
2022-11-24T09:57:40.706Z,67.70
2022-11-24T10:05:22.961Z,67.21
2022-11-24T10:37:59.083Z,51.61
2022-11-24T10:43:23.908Z,44.09
2022-11-24T10:45:51.904Z,40.91
2022-11-24T10:48:23.019Z,38.46
2022-11-24T10:50:54.243Z,37.38
2022-11-24T10:53:27.479Z,39.93
2022-11-24T10:56:05.102Z,42.13
2022-11-24T10:58:37.913Z,44.69
2022-11-24T11:01:24.003Z,46.92
2022-11-24T11:03:54.994Z,47.59
2022-11-24T11:06:26.995Z,48.61
2022-11-24T11:09:19.453Z,48.76
2022-11-24T11:11:52.275Z,49.08
2022-11-24T11:14:32.165Z,48.93
2022-11-24T11:17:02.769Z,46.75
2022-11-24T11:19:50.391Z,44.92
2022-11-24T11:22:28.013Z,44.71
2022-11-24T11:25:08.573Z,42.04
2022-11-24T11:27:36.821Z,39.59
2022-11-24T11:36:15.954Z,42.00
2022-11-24T11:38:45.959Z,41.09
2022-11-24T11:41:23.394Z,42.46
2022-11-24T11:44:06.126Z,43.87
2022-11-24T11:46:39.230Z,45.62
2022-11-24T11:49:10.812Z,45.65
2022-11-24T11:51:58.068Z,46.25
2022-11-24T11:54:46.668Z,46.36
2022-11-24T11:57:30.344Z,47.23
2022-11-24T12:00:27.067Z,48.63
2022-11-24T12:03:18.934Z,49.24
2022-11-24T12:06:00.522Z,49.53
2022-11-24T12:09:11.452Z,49.96
2022-11-24T12:11:35.877Z,49.72
2022-11-24T12:14:34.145Z,49.40
2022-11-24T12:17:17.208Z,49.73
2022-11-24T12:20:06.674Z,49.52
2022-11-24T12:22:43.137Z,49.48
2022-11-24T12:25:25.786Z,49.34
2022-11-24T12:28:06.099Z,48.98
2022-11-24T12:30:45.236Z,47.99
2022-11-24T12:36:30.444Z,47.94
2022-11-24T12:39:06.528Z,47.22
2022-11-24T12:41:53.253Z,48.14
2022-11-24T12:44:35.561Z,49.14
2022-11-24T12:47:15.322Z,49.26
2022-11-24T12:49:56.395Z,47.99
2022-11-24T12:52:29.754Z,48.28
2022-11-24T12:54:59.761Z,49.36
2022-11-24T12:57:35.108Z,48.21
2022-11-24T13:00:07.623Z,48.38
2022-11-24T13:02:52.674Z,48.82
2022-11-24T13:05:25.357Z,48.61
2022-11-24T13:07:59.246Z,49.46
2022-11-24T13:11:01.107Z,49.24
2022-11-24T13:13:24.557Z,50.43
2022-11-24T13:19:10.656Z,51.16
2022-11-24T13:26:26.280Z,51.58
2022-11-24T13:32:36.416Z,53.62
2022-11-24T13:35:47.883Z,53.27
2022-11-24T13:42:42.491Z,53.85
2022-11-24T13:45:01.961Z,54.88
2022-11-24T13:47:45.208Z,54.89
2022-11-24T13:50:49.876Z,55.25
2022-11-24T13:53:27.796Z,54.98
2022-11-24T13:55:59.648Z,55.72
2022-11-24T13:58:32.963Z,54.86
2022-11-24T14:01:13.583Z,55.06
2022-11-24T14:04:21.514Z,55.57
2022-11-24T14:06:44.136Z,55.77
2022-11-24T14:09:27.510Z,56.18
2022-11-24T14:12:01.292Z,56.34
2022-11-24T14:14:30.543Z,56.70
2022-11-24T14:17:14.060Z,56.40
2022-11-24T14:19:42.773Z,56.37
2022-11-24T14:22:19.699Z,57.17
2022-11-24T14:24:54.015Z,57.61
2022-11-24T14:27:31.987Z,55.87
2022-11-24T14:30:03.358Z,56.23
2022-11-24T14:32:32.738Z,57.07
2022-11-24T14:35:00.974Z,57.12
2022-11-24T14:37:29.633Z,57.40
2022-11-24T14:39:58.469Z,57.88
2022-11-24T14:42:28.940Z,57.54
2022-11-24T14:45:02.101Z,58.10
2022-11-24T14:47:46.299Z,58.84
2022-11-24T14:50:19.668Z,58.56
2022-11-24T14:52:56.102Z,59.15
2022-11-24T14:55:27.304Z,59.14
2022-11-24T14:58:03.479Z,59.25
2022-11-24T15:00:33.364Z,59.45
2022-11-24T15:03:26.862Z,59.50
2022-11-24T15:05:56.817Z,59.97
2022-11-24T15:08:26.280Z,60.33
2022-11-24T15:11:00.952Z,60.42
2022-11-24T15:13:30.272Z,61.05
2022-11-24T15:16:03.543Z,61.44
2022-11-24T15:18:42.186Z,61.96
2022-11-24T15:24:17.430Z,62.76
2022-11-24T15:26:46.787Z,63.11
2022-11-24T15:29:17.421Z,63.35
2022-11-24T15:32:19.314Z,63.82
2022-11-24T15:34:48.481Z,63.94
2022-11-24T15:37:18.928Z,64.16
2022-11-24T15:39:52.110Z,64.50
2022-11-24T15:42:20.115Z,64.50
2022-11-24T15:44:48.716Z,64.93
2022-11-24T15:47:26.841Z,65.38
2022-11-24T15:49:56.004Z,65.81
2022-11-24T15:52:23.989Z,66.17
2022-11-24T15:54:56.443Z,66.24
2022-11-24T15:57:27.873Z,66.47
2022-11-24T16:00:07.177Z,66.79
2022-11-24T16:09:58.348Z,67.31
2022-11-24T16:12:30.438Z,67.89
2022-11-24T16:15:00.322Z,68.08
2022-11-24T16:30:44.924Z,68.26
2022-11-24T16:36:02.920Z,69.10
2022-11-24T16:42:43.240Z,69.54
2022-11-24T16:45:37.538Z,69.17
2022-11-24T16:55:58.528Z,70.27
2022-11-24T16:58:26.580Z,70.46
2022-11-24T17:04:12.435Z,70.88
2022-11-24T17:06:40.875Z,71.24
2022-11-24T17:20:45.463Z,72.02
2022-11-24T17:37:30.148Z,71.61
2022-11-24T17:40:20.777Z,71.65
2022-11-24T17:42:46.257Z,71.79
2022-11-24T17:51:56.496Z,71.32
2022-11-24T18:04:27.706Z,71.75
2022-11-24T18:34:59.962Z,72.47
2022-11-24T18:39:33.525Z,72.32
2022-11-24T18:43:35.917Z,72.47
2022-11-24T19:23:05.146Z,73.11
2022-11-24T19:45:15.416Z,73.53
2022-11-24T19:48:55.830Z,73.56
2022-11-24T20:08:21.851Z,74.34
2022-11-24T20:10:57.161Z,74.53
2022-11-24T20:16:10.344Z,75.10
2022-11-24T20:18:48.839Z,75.22
2022-11-24T20:21:20.639Z,75.61
2022-11-24T20:23:57.119Z,75.15
2022-11-24T21:09:34.357Z,75.01
2022-11-24T21:13:12.193Z,75.01
2022-11-24T21:15:39.912Z,75.12
2022-11-24T21:18:08.985Z,75.80
2022-11-24T21:20:36.712Z,75.75
2022-11-24T21:23:05.009Z,76.07
2022-11-24T21:25:35.819Z,75.84
2022-11-24T21:29:42.507Z,75.94
2022-11-24T21:32:10.312Z,76.14
2022-11-24T21:34:40.164Z,76.25
2022-11-24T21:37:09.703Z,76.69
2022-11-24T21:39:37.453Z,76.58
2022-11-24T21:42:05.689Z,76.85
2022-11-24T21:44:33.601Z,76.54
2022-11-24T21:47:01.556Z,76.48
2022-11-24T21:49:29.686Z,76.65
2022-11-24T21:51:58.717Z,76.93
2022-11-24T21:54:26.542Z,76.56
2022-11-24T21:56:55.389Z,76.44
2022-11-24T21:59:23.228Z,76.76
2022-11-24T22:01:51.303Z,76.74
2022-11-24T22:04:19.113Z,76.46
2022-11-24T22:06:46.855Z,76.95
2022-11-24T22:09:18.191Z,76.95
2022-11-24T22:11:46.562Z,76.77
2022-11-24T22:14:14.301Z,76.72
2022-11-24T22:16:42.148Z,76.90
2022-11-24T22:19:10.190Z,77.00
2022-11-24T22:21:38.429Z,77.09
2022-11-24T22:24:06.975Z,77.02
2022-11-24T22:26:41.573Z,76.98
2022-11-24T22:29:19.391Z,77.36
2022-11-24T22:31:56.057Z,77.13
2022-11-24T22:34:26.874Z,77.47
2022-11-24T22:36:57.280Z,77.24
2022-11-24T22:39:30.186Z,77.44
2022-11-24T22:42:10.599Z,78.03
2022-11-24T22:44:38.555Z,78.06
2022-11-24T22:47:06.280Z,78.34
2022-11-24T22:49:34.522Z,77.82
2022-11-24T22:52:02.439Z,77.80
2022-11-24T22:54:30.227Z,78.24
2022-11-24T22:56:59.672Z,78.28
2022-11-24T22:59:27.414Z,78.25
2022-11-24T23:01:55.418Z,78.15
2022-11-24T23:04:23.250Z,78.06
2022-11-24T23:06:51.051Z,77.95
2022-11-24T23:09:18.781Z,77.58
2022-11-24T23:11:46.567Z,77.69
2022-11-24T23:14:16.679Z,77.86
2022-11-24T23:16:44.676Z,77.74
2022-11-24T23:19:12.484Z,77.95
2022-11-24T23:21:40.467Z,77.78
2022-11-24T23:24:09.371Z,77.76
2022-11-24T23:26:38.533Z,78.44
2022-11-24T23:29:07.391Z,78.10
2022-11-24T23:31:39.514Z,77.87
2022-11-24T23:34:07.728Z,78.06
2022-11-24T23:36:35.442Z,78.08
2022-11-24T23:39:04.185Z,78.76
2022-11-24T23:41:32.340Z,78.42
2022-11-24T23:44:00.182Z,78.70
2022-11-24T23:46:30.543Z,78.35
2022-11-24T23:49:05.783Z,78.82
2022-11-24T23:51:34.783Z,79.15
2022-11-24T23:54:10.505Z,78.82
2022-11-24T23:56:38.383Z,78.80
2022-11-24T23:59:06.329Z,79.17
